Grenville, South Dakota
Current Conditions -  °F | °C
As of 12:53 AM on Wednesday 22 Oct 2014 (Local Time) from KATY Reporting Station
Clear Clear  
Wind Chill: 55°   Ceiling: Unl
Heat Index: 55°   Visibility: 10mi
Dew Point: 41°   Wind: 24mph
Humidity: 59%   Direction: 160°SSE
Pressure: 29.94"   Gusts: 32mph
Location:  45.47°N, 97.39°W
Report Text: KATY 220553Z AUTO 16021G28KT 10SM CLR 13/05 A2994 RMK AO2 PK WND 17028/0553 SLP136 T01280050 10189 20128 402330039 58006
Loading
Personal Weather Stations






























Interactive Weather Map
Tropical Storm Tracking
New forecast layout! Learn more

10-Day Weather Forecast

Advertisements
Track Severe Weather on mobile